createdAt,value
2018-06-19T00:02:19.906Z,88.20
2018-06-19T00:04:52.197Z,87.90
2018-06-19T00:07:23.791Z,87.70
2018-06-19T00:09:56.221Z,88.20
2018-06-19T00:12:32.140Z,88.00
2018-06-19T00:15:05.256Z,88.20
2018-06-19T00:17:38.202Z,88.10
2018-06-19T00:20:10.887Z,88.40
2018-06-19T00:22:46.311Z,88.70
2018-06-19T00:25:17.753Z,88.60
2018-06-19T00:27:50.778Z,88.80
2018-06-19T00:30:23.462Z,88.80
2018-06-19T00:32:56.164Z,88.60
2018-06-19T00:35:28.327Z,88.80
2018-06-19T00:38:00.725Z,88.80
2018-06-19T00:40:33.292Z,88.90
2018-06-19T00:43:05.893Z,89.10
2018-06-19T00:45:37.647Z,89.60
2018-06-19T00:48:11.520Z,89.80
2018-06-19T00:50:43.530Z,89.70
2018-06-19T00:53:15.874Z,90.10
2018-06-19T00:55:47.761Z,89.90
2018-06-19T00:58:21.823Z,90.10
2018-06-19T01:00:53.688Z,90.20
2018-06-19T01:03:31.200Z,90.00
2018-06-19T01:06:05.460Z,90.00
2018-06-19T01:08:39.847Z,90.00
2018-06-19T01:11:17.164Z,90.10
2018-06-19T01:13:50.828Z,90.10
2018-06-19T01:16:26.314Z,90.00
2018-06-19T01:18:59.574Z,90.10
2018-06-19T01:21:31.761Z,90.10
2018-06-19T01:24:04.765Z,90.20
2018-06-19T01:26:39.466Z,90.20
2018-06-19T01:29:11.293Z,90.40
2018-06-19T01:31:43.730Z,90.60
2018-06-19T01:34:15.659Z,90.70
2018-06-19T01:36:47.330Z,90.60
2018-06-19T01:39:20.968Z,90.60
2018-06-19T01:41:53.042Z,90.60
2018-06-19T01:44:26.022Z,90.80
2018-06-19T01:46:59.686Z,90.70
2018-06-19T01:49:33.421Z,90.70
2018-06-19T01:52:05.730Z,90.60
2018-06-19T01:54:44.383Z,90.70
2018-06-19T01:57:17.471Z,90.70
2018-06-19T01:59:51.212Z,90.80
2018-06-19T02:02:23.845Z,90.80
2018-06-19T02:04:56.944Z,90.60
2018-06-19T02:07:28.865Z,90.40
2018-06-19T02:10:01.458Z,90.20
2018-06-19T02:12:34.304Z,89.90
2018-06-19T02:15:09.573Z,89.90
2018-06-19T02:17:41.319Z,90.00
2018-06-19T02:20:17.867Z,90.10
2018-06-19T02:23:00.764Z,90.20
2018-06-19T02:25:34.711Z,90.00
2018-06-19T02:28:11.545Z,89.70
2018-06-19T02:30:46.306Z,89.70
2018-06-19T02:33:18.449Z,89.40
2018-06-19T02:35:51.856Z,89.30
2018-06-19T02:38:26.311Z,89.40
2018-06-19T02:41:00.085Z,89.40
2018-06-19T02:43:34.510Z,89.30
2018-06-19T02:46:09.959Z,89.30
2018-06-19T02:48:46.245Z,89.20
2018-06-19T02:51:21.975Z,88.90
2018-06-19T02:53:59.574Z,88.70
2018-06-19T02:56:31.328Z,88.60
2018-06-19T02:59:05.550Z,88.70
2018-06-19T03:01:38.195Z,88.60
2018-06-19T03:04:12.523Z,88.60
2018-06-19T03:06:47.081Z,88.40
2018-06-19T03:09:22.718Z,88.30
2018-06-19T03:11:55.767Z,88.30
2018-06-19T03:14:29.705Z,88.40
2018-06-19T03:17:02.707Z,88.50
2018-06-19T03:19:39.276Z,88.60
2018-06-19T03:22:12.343Z,88.50
2018-06-19T03:24:46.272Z,88.50
2018-06-19T03:27:19.612Z,88.30
2018-06-19T03:29:51.987Z,88.20
2018-06-19T03:32:25.422Z,88.20
2018-06-19T03:34:58.677Z,88.20
2018-06-19T03:37:31.228Z,88.10
2018-06-19T03:40:03.923Z,88.40
2018-06-19T03:42:36.202Z,88.20
2018-06-19T03:45:08.624Z,88.10
2018-06-19T03:47:42.319Z,88.10
2018-06-19T03:50:15.584Z,88.20
2018-06-19T03:52:48.963Z,88.40
2018-06-19T03:55:21.748Z,88.30
2018-06-19T03:57:53.491Z,88.30
2018-06-19T04:00:25.148Z,88.40
2018-06-19T04:03:05.213Z,88.40
2018-06-19T04:05:40.648Z,88.40
2018-06-19T04:08:13.034Z,88.50
2018-06-19T04:10:47.969Z,88.60
2018-06-19T04:13:20.335Z,88.40
2018-06-19T04:15:52.036Z,88.50
2018-06-19T04:18:23.922Z,88.40
2018-06-19T04:20:57.048Z,88.30
2018-06-19T04:23:34.548Z,88.40
2018-06-19T04:26:10.948Z,88.60
2018-06-19T04:28:43.137Z,88.60
2018-06-19T04:31:14.554Z,88.40
2018-06-19T04:33:48.008Z,88.40
2018-06-19T04:36:19.989Z,88.30
2018-06-19T04:38:56.812Z,88.40
2018-06-19T04:46:35.201Z,88.30
2018-06-19T04:49:11.265Z,88.30
2018-06-19T04:51:50.594Z,89.20
2018-06-19T04:54:22.364Z,89.10
2018-06-19T04:56:53.887Z,88.90
2018-06-19T04:59:31.725Z,89.10
2018-06-19T05:02:11.040Z,88.80
2018-06-19T05:04:46.714Z,88.80
2018-06-19T05:07:28.368Z,88.80
2018-06-19T05:10:04.601Z,89.10
2018-06-19T05:12:35.546Z,89.30
2018-06-19T05:15:07.878Z,89.40
2018-06-19T05:17:38.702Z,89.40
2018-06-19T05:20:10.741Z,89.40
2018-06-19T05:25:21.603Z,89.60
2018-06-19T05:27:53.601Z,89.60
2018-06-19T05:30:25.449Z,89.50
2018-06-19T05:32:57.230Z,89.70
2018-06-19T05:35:34.864Z,89.60
2018-06-19T05:38:06.505Z,89.20
2018-06-19T05:43:08.354Z,89.10
2018-06-19T05:45:40.118Z,89.30
2018-06-19T05:48:11.587Z,89.30
2018-06-19T05:50:42.957Z,89.30
2018-06-19T05:53:15.401Z,89.20
2018-06-19T05:55:47.761Z,88.90
2018-06-19T05:58:29.369Z,89.10
2018-06-19T06:01:06.980Z,88.80
2018-06-19T06:06:19.018Z,88.70
2018-06-19T06:08:51.191Z,88.80
2018-06-19T06:11:24.166Z,88.50
2018-06-19T06:13:55.687Z,88.70
2018-06-19T06:16:27.041Z,88.60
2018-06-19T06:18:59.629Z,88.20
2018-06-19T06:21:31.037Z,88.10
2018-06-19T06:24:04.170Z,88.10
2018-06-19T06:26:35.618Z,88.10
2018-06-19T06:29:07.603Z,88.30
2018-06-19T06:31:40.253Z,88.10
2018-06-19T06:34:11.878Z,88.20
2018-06-19T06:36:44.220Z,88.50
2018-06-19T06:39:17.399Z,88.60
2018-06-19T06:41:49.266Z,88.70
2018-06-19T06:44:20.801Z,88.70
2018-06-19T06:46:51.492Z,88.60
2018-06-19T06:49:22.420Z,88.50
2018-06-19T06:51:55.393Z,88.40
2018-06-19T06:54:26.867Z,88.20
2018-06-19T06:57:00.469Z,88.20
2018-06-19T06:59:32.057Z,88.30
2018-06-19T07:02:02.486Z,88.20
2018-06-19T07:04:33.164Z,88.00
2018-06-19T07:07:03.166Z,88.00
2018-06-19T07:09:33.566Z,88.30
2018-06-19T07:12:05.317Z,88.20
2018-06-19T07:14:36.389Z,88.40
2018-06-19T07:17:06.853Z,88.00
2018-06-19T07:19:37.543Z,87.80
2018-06-19T07:22:07.893Z,87.90
2018-06-19T07:24:38.463Z,87.80
2018-06-19T07:27:09.830Z,87.90
2018-06-19T07:29:40.548Z,88.00
2018-06-19T07:32:11.216Z,88.20
2018-06-19T07:34:41.498Z,88.10
2018-06-19T07:37:12.190Z,88.30
2018-06-19T07:39:42.784Z,88.00
2018-06-19T07:42:13.375Z,88.00
2018-06-19T07:44:43.959Z,88.00
2018-06-19T07:47:14.007Z,88.10
2018-06-19T07:49:44.763Z,88.60
2018-06-19T07:52:15.721Z,89.20
2018-06-19T07:54:46.159Z,89.30
2018-06-19T07:57:23.458Z,90.30
2018-06-19T07:59:54.575Z,91.00
2018-06-19T08:02:25.235Z,91.90
2018-06-19T08:05:02.041Z,92.50
2018-06-19T08:07:32.691Z,93.20
2018-06-19T08:10:02.827Z,93.50
2018-06-19T08:12:33.869Z,93.20
2018-06-19T08:15:04.324Z,94.30
2018-06-19T08:17:34.670Z,93.70
2018-06-19T08:20:05.004Z,94.70
2018-06-19T08:22:35.532Z,94.60
2018-06-19T08:25:06.318Z,94.50
2018-06-19T08:27:37.665Z,94.30
2018-06-19T08:30:08.725Z,94.40
2018-06-19T08:32:41.329Z,94.40
2018-06-19T08:35:11.763Z,94.10
2018-06-19T08:37:42.789Z,93.70
2018-06-19T08:40:17.914Z,93.90
2018-06-19T08:42:48.423Z,93.70
2018-06-19T08:45:21.109Z,93.50
2018-06-19T08:47:52.139Z,93.70
2018-06-19T08:50:23.425Z,94.10
2018-06-19T08:52:55.199Z,94.30
2018-06-19T08:55:26.312Z,94.00
2018-06-19T08:57:58.041Z,93.00
2018-06-19T09:00:28.903Z,93.10
2018-06-19T09:03:00.093Z,93.30
2018-06-19T09:05:31.654Z,92.10
2018-06-19T09:08:02.574Z,91.90
2018-06-19T09:10:33.362Z,91.50
2018-06-19T09:13:04.341Z,91.20
2018-06-19T09:15:38.600Z,90.90
2018-06-19T09:18:09.504Z,89.80
2018-06-19T09:20:44.052Z,90.60
2018-06-19T09:23:15.190Z,89.20
2018-06-19T09:25:46.335Z,89.10
2018-06-19T09:28:17.220Z,89.20
2018-06-19T09:30:48.417Z,89.40
2018-06-19T09:33:20.159Z,88.50
2018-06-19T09:35:51.529Z,89.10
2018-06-19T09:38:22.483Z,88.50
2018-06-19T09:40:59.548Z,88.60
2018-06-19T09:43:30.231Z,88.70
2018-06-19T09:48:31.344Z,87.80
2018-06-19T09:51:01.888Z,88.30
2018-06-19T09:53:33.263Z,88.30
2018-06-19T09:56:05.136Z,88.70
2018-06-19T09:58:39.181Z,88.70
2018-06-19T10:01:11.668Z,88.70
2018-06-19T10:03:43.331Z,88.90
2018-06-19T10:06:16.075Z,88.30
2018-06-19T10:08:47.781Z,87.40
2018-06-19T10:11:20.203Z,87.20
2018-06-19T10:14:00.852Z,86.60
2018-06-19T10:16:38.444Z,86.40
2018-06-19T10:19:10.790Z,86.20
2018-06-19T10:21:42.459Z,85.60
2018-06-19T10:24:14.523Z,85.40
2018-06-19T10:26:45.864Z,86.00
2018-06-19T10:29:17.532Z,86.10
2018-06-19T10:31:55.254Z,87.40
2018-06-19T10:34:28.840Z,87.50
2018-06-19T10:37:02.341Z,88.00
2018-06-19T10:39:33.823Z,87.60
2018-06-19T10:42:05.432Z,86.40
2018-06-19T10:44:37.364Z,85.20
2018-06-19T10:47:09.090Z,84.10
2018-06-19T10:49:42.717Z,83.80
2018-06-19T10:52:14.633Z,82.40
2018-06-19T10:54:46.619Z,81.20
2018-06-19T10:57:19.379Z,81.30
2018-06-19T10:59:51.256Z,80.50
2018-06-19T11:02:28.042Z,80.70
2018-06-19T11:05:01.247Z,80.60
2018-06-19T11:07:33.954Z,80.80
2018-06-19T11:10:05.657Z,80.90
2018-06-19T11:12:37.406Z,80.60
2018-06-19T11:15:09.484Z,80.60
2018-06-19T11:17:47.253Z,78.90
2018-06-19T11:20:20.953Z,79.90
2018-06-19T11:22:55.916Z,79.80
2018-06-19T11:25:31.980Z,80.80
2018-06-19T11:28:03.797Z,80.40
2018-06-19T11:30:35.638Z,80.00
2018-06-19T11:33:07.336Z,80.00
2018-06-19T11:35:42.727Z,80.40
2018-06-19T11:38:14.155Z,80.60
2018-06-19T11:40:47.747Z,79.90
2018-06-19T11:43:19.044Z,79.60
2018-06-19T11:45:57.220Z,79.50
2018-06-19T11:48:30.127Z,79.00
2018-06-19T11:51:02.239Z,78.80
2018-06-19T11:53:35.079Z,79.00
2018-06-19T11:56:07.212Z,79.40
2018-06-19T11:58:39.013Z,79.00
2018-06-19T12:01:11.559Z,79.30
2018-06-19T12:03:42.635Z,79.60
2018-06-19T12:06:16.250Z,79.20
2018-06-19T12:08:49.424Z,79.50
2018-06-19T12:11:21.078Z,78.90
2018-06-19T12:13:56.994Z,77.80
2018-06-19T12:16:29.256Z,77.50
2018-06-19T12:19:02.526Z,76.60
2018-06-19T12:21:34.005Z,76.50
2018-06-19T12:24:05.459Z,77.10
2018-06-19T12:26:37.529Z,76.20
2018-06-19T12:29:08.362Z,75.70
2018-06-19T12:31:39.770Z,76.70
2018-06-19T12:34:11.072Z,76.40
2018-06-19T12:36:43.319Z,76.30
2018-06-19T12:39:15.119Z,76.00
2018-06-19T12:41:48.485Z,76.40
2018-06-19T12:44:19.855Z,77.00
2018-06-19T12:46:55.522Z,77.40
2018-06-19T12:50:36.980Z,77.60
2018-06-19T12:53:24.378Z,76.80
2018-06-19T12:56:06.751Z,75.70
2018-06-19T12:58:39.444Z,76.50
2018-06-19T13:01:11.698Z,76.20
2018-06-19T13:03:53.851Z,75.30
2018-06-19T13:06:36.529Z,75.70
2018-06-19T13:09:10.093Z,75.30
2018-06-19T13:11:45.081Z,75.60
2018-06-19T13:14:27.239Z,76.10
2018-06-19T13:17:13.960Z,76.60
2018-06-19T13:19:56.989Z,75.90
2018-06-19T13:22:28.509Z,75.70
2018-06-19T13:25:01.057Z,76.10
2018-06-19T13:27:34.482Z,77.00
2018-06-19T13:30:21.055Z,78.10
2018-06-19T13:32:52.411Z,78.30
2018-06-19T13:35:24.845Z,78.20
2018-06-19T13:37:57.242Z,77.60
2018-06-19T13:41:05.500Z,78.10
2018-06-19T13:43:48.049Z,77.60
2018-06-19T13:46:19.862Z,76.70
2018-06-19T13:48:52.804Z,75.40
2018-06-19T13:51:25.933Z,75.10
2018-06-19T13:53:58.025Z,74.20
2018-06-19T13:57:43.747Z,73.80
2018-06-19T14:02:58.441Z,73.30
2018-06-19T14:05:30.748Z,74.10
2018-06-19T14:08:06.114Z,73.50
2018-06-19T14:10:48.227Z,73.30
2018-06-19T14:13:20.763Z,72.20
2018-06-19T14:15:52.867Z,72.30
2018-06-19T14:18:28.860Z,72.60
2018-06-19T14:21:07.053Z,73.70
2018-06-19T14:23:39.712Z,73.00
2018-06-19T14:26:15.032Z,72.20
2018-06-19T14:28:47.176Z,71.70
2018-06-19T14:31:19.706Z,71.60
2018-06-19T14:33:51.908Z,71.20
2018-06-19T14:36:23.188Z,70.00
2018-06-19T14:38:54.443Z,68.90
2018-06-19T14:41:26.427Z,68.30
2018-06-19T14:43:58.967Z,68.40
2018-06-19T14:46:31.633Z,69.60
2018-06-19T14:49:04.796Z,70.30
2018-06-19T14:51:36.813Z,70.70
2018-06-19T14:54:08.307Z,70.80
2018-06-19T14:56:40.527Z,71.20
2018-06-19T14:59:16.247Z,70.50
2018-06-19T15:01:48.020Z,70.80
2018-06-19T15:04:19.859Z,71.00
2018-06-19T15:06:52.035Z,71.30
2018-06-19T15:09:23.955Z,71.30
2018-06-19T15:11:55.546Z,70.30
2018-06-19T15:14:34.504Z,68.40
2018-06-19T15:17:07.046Z,68.20
2018-06-19T15:19:39.972Z,66.80
2018-06-19T15:22:12.263Z,66.70
2018-06-19T15:24:46.014Z,67.50
2018-06-19T15:27:18.358Z,68.50
2018-06-19T15:29:50.491Z,68.30
2018-06-19T15:32:23.372Z,68.40
2018-06-19T15:34:54.950Z,69.00
2018-06-19T15:37:28.075Z,68.70
2018-06-19T15:40:00.668Z,68.60
2018-06-19T15:42:32.667Z,68.90
2018-06-19T15:45:11.847Z,70.00
2018-06-19T15:47:43.714Z,70.90
2018-06-19T15:50:14.847Z,70.90
2018-06-19T15:52:47.814Z,71.00
2018-06-19T15:55:19.534Z,71.20
2018-06-19T15:57:51.403Z,71.10
2018-06-19T16:00:23.455Z,69.90
2018-06-19T16:02:55.288Z,69.80
2018-06-19T16:05:34.867Z,69.60
2018-06-19T16:08:11.204Z,69.40
2018-06-19T16:10:50.129Z,70.30
2018-06-19T16:13:22.703Z,70.50
2018-06-19T16:15:54.691Z,70.30
2018-06-19T16:18:26.031Z,70.30
2018-06-19T16:20:59.005Z,70.40
2018-06-19T16:23:30.296Z,71.20
2018-06-19T16:26:01.832Z,71.20
2018-06-19T16:28:39.307Z,71.50
2018-06-19T16:31:11.194Z,71.70
2018-06-19T16:33:51.704Z,72.40
2018-06-19T16:36:24.065Z,72.00
2018-06-19T16:41:26.068Z,72.00
2018-06-19T16:43:59.537Z,72.00
2018-06-19T16:46:31.944Z,71.90
2018-06-19T16:49:03.851Z,72.10
2018-06-19T16:51:36.520Z,72.00
2018-06-19T16:54:07.516Z,72.10
2018-06-19T16:56:39.111Z,72.20
2018-06-19T16:59:10.579Z,72.70
2018-06-19T17:01:41.964Z,73.10
2018-06-19T17:04:14.225Z,73.30
2018-06-19T17:06:46.624Z,73.80
2018-06-19T17:09:18.510Z,74.20
2018-06-19T17:11:49.732Z,74.30
2018-06-19T17:14:21.255Z,75.00
2018-06-19T17:19:24.327Z,75.30
2018-06-19T17:21:56.727Z,75.20
2018-06-19T17:24:27.782Z,75.20
2018-06-19T17:29:29.656Z,76.00
2018-06-19T17:32:00.937Z,76.00
2018-06-19T17:34:32.646Z,76.10
2018-06-19T17:37:04.927Z,76.30
2018-06-19T17:39:36.745Z,76.60
2018-06-19T17:42:08.211Z,76.50
2018-06-19T17:44:49.839Z,76.80
2018-06-19T17:49:54.613Z,77.00
2018-06-19T17:52:25.838Z,77.70
2018-06-19T17:54:57.842Z,77.60
2018-06-19T17:57:29.789Z,77.30
2018-06-19T18:00:01.503Z,77.50
2018-06-19T18:02:33.052Z,77.60
2018-06-19T18:05:05.749Z,77.90
2018-06-19T18:07:38.728Z,78.10
2018-06-19T18:10:26.445Z,78.40
2018-06-19T18:12:59.345Z,78.60
2018-06-19T18:15:31.954Z,79.00
2018-06-19T18:18:06.096Z,78.80
2018-06-19T18:20:38.663Z,79.20
2018-06-19T18:23:10.699Z,79.20
2018-06-19T18:25:42.747Z,79.60
2018-06-19T18:28:14.805Z,79.00
2018-06-19T18:30:48.005Z,79.00
2018-06-19T18:33:21.754Z,78.70
2018-06-19T18:35:55.317Z,78.90
2018-06-19T18:38:30.226Z,78.90
2018-06-19T18:41:01.845Z,79.30
2018-06-19T18:43:33.883Z,78.80
2018-06-19T18:46:07.334Z,79.00
2018-06-19T18:48:38.950Z,79.00
2018-06-19T18:51:15.116Z,79.20
2018-06-19T18:53:46.478Z,79.50
2018-06-19T18:56:18.015Z,79.60
2018-06-19T18:58:49.793Z,79.60
2018-06-19T19:01:24.192Z,79.90
2018-06-19T19:03:56.458Z,79.90
2018-06-19T19:06:27.293Z,80.10
2018-06-19T19:08:59.726Z,80.50
2018-06-19T19:11:34.864Z,80.70
2018-06-19T19:14:05.200Z,80.50
2018-06-19T19:16:41.381Z,80.60
2018-06-19T19:19:18.008Z,80.60
2018-06-19T19:21:48.832Z,80.50
2018-06-19T19:24:20.137Z,80.50
2018-06-19T19:27:00.864Z,80.60
2018-06-19T19:29:42.268Z,80.90
2018-06-19T19:32:13.595Z,81.10
2018-06-19T19:34:45.198Z,81.50
2018-06-19T19:37:21.697Z,81.50
2018-06-19T19:39:52.688Z,81.30
2018-06-19T19:42:25.502Z,81.70
2018-06-19T19:45:04.081Z,81.60
2018-06-19T19:47:40.704Z,81.80
2018-06-19T19:50:12.839Z,81.90
2018-06-19T19:52:44.035Z,81.60
2018-06-19T19:55:29.729Z,81.70
2018-06-19T19:58:06.695Z,82.00
2018-06-19T20:03:09.191Z,82.10
2018-06-19T20:05:40.466Z,82.30
2018-06-19T20:08:11.320Z,82.40
2018-06-19T20:10:41.631Z,82.40
2018-06-19T20:13:12.167Z,82.30
2018-06-19T20:15:46.753Z,82.20
2018-06-19T20:18:18.579Z,82.30
2018-06-19T20:20:50.170Z,82.60
2018-06-19T20:23:21.310Z,82.40
2018-06-19T20:25:52.308Z,82.80
2018-06-19T20:28:23.498Z,82.90
2018-06-19T20:30:56.213Z,82.90
2018-06-19T20:33:33.025Z,82.40
2018-06-19T20:36:04.710Z,82.90
2018-06-19T20:38:38.147Z,83.00
2018-06-19T20:41:11.253Z,83.00
2018-06-19T20:43:42.434Z,83.00
2018-06-19T20:46:15.722Z,83.20
2018-06-19T20:48:46.867Z,83.40
2018-06-19T20:51:23.904Z,83.30
2018-06-19T20:53:56.261Z,83.10
2018-06-19T20:59:01.335Z,83.20
2018-06-19T21:01:34.162Z,83.30
2018-06-19T21:04:07.984Z,83.10
2018-06-19T21:06:40.807Z,83.20
2018-06-19T21:09:14.795Z,83.10
2018-06-19T21:11:47.911Z,83.20
2018-06-19T21:14:21.061Z,83.50
2018-06-19T21:16:54.985Z,83.90
2018-06-19T21:19:32.059Z,83.80
2018-06-19T21:22:06.007Z,84.20
2018-06-19T21:24:39.320Z,85.20
2018-06-19T21:27:13.477Z,85.00
2018-06-19T21:29:50.540Z,85.10
2018-06-19T21:32:28.536Z,85.40
2018-06-19T21:35:02.838Z,85.50
2018-06-19T21:40:28.024Z,86.30
2018-06-19T21:43:01.537Z,86.70
2018-06-19T21:45:34.961Z,86.70
2018-06-19T21:48:08.218Z,86.80
2018-06-19T21:53:13.217Z,87.00
2018-06-19T21:55:45.973Z,87.10
2018-06-19T21:58:18.078Z,87.10
2018-06-19T22:00:50.574Z,87.40
2018-06-19T22:03:27.151Z,87.50
2018-06-19T22:06:01.112Z,87.70
2018-06-19T22:08:38.493Z,87.70
2018-06-19T22:11:10.465Z,87.60
2018-06-19T22:13:43.025Z,87.70
2018-06-19T22:16:15.768Z,88.00
2018-06-19T22:18:51.357Z,88.10
2018-06-19T22:21:25.140Z,88.30
2018-06-19T22:23:58.391Z,88.30
2018-06-19T22:26:31.167Z,88.40
2018-06-19T22:29:06.391Z,88.60
2018-06-19T22:31:39.908Z,89.30
2018-06-19T22:34:12.679Z,89.10
2018-06-19T22:36:51.594Z,89.20
2018-06-19T22:39:23.704Z,89.10
2018-06-19T22:41:56.437Z,88.80
2018-06-19T22:44:29.858Z,88.90
2018-06-19T22:47:03.057Z,89.30
2018-06-19T22:49:35.664Z,89.50
2018-06-19T22:52:09.776Z,89.40
2018-06-19T22:54:43.242Z,89.70
2018-06-19T22:57:17.281Z,89.60
2018-06-19T22:59:50.008Z,89.50
2018-06-19T23:02:22.854Z,90.10
2018-06-19T23:04:55.414Z,90.30
2018-06-19T23:07:27.965Z,90.30
2018-06-19T23:10:02.318Z,90.60
2018-06-19T23:12:35.690Z,91.10
2018-06-19T23:15:09.131Z,91.20
2018-06-19T23:17:42.712Z,91.50
2018-06-19T23:20:14.938Z,91.50
2018-06-19T23:22:50.350Z,91.70
2018-06-19T23:25:23.055Z,91.80
2018-06-19T23:27:55.444Z,91.30
2018-06-19T23:30:28.184Z,90.90
2018-06-19T23:33:00.824Z,91.20
2018-06-19T23:35:33.851Z,91.40
2018-06-19T23:38:06.731Z,91.80
2018-06-19T23:40:39.704Z,91.70
2018-06-19T23:43:13.354Z,91.80
2018-06-19T23:45:47.334Z,92.30
2018-06-19T23:48:19.123Z,92.30
2018-06-19T23:50:51.840Z,92.40
2018-06-19T23:53:24.959Z,92.30
2018-06-19T23:55:59.070Z,92.40
2018-06-19T23:58:31.558Z,92.50
